createdAt,value
2017-12-20T00:01:08.180Z,20.40
2017-12-20T00:03:35.815Z,21.33
2017-12-20T00:06:02.507Z,24.10
2017-12-20T00:08:29.193Z,25.80
2017-12-20T00:10:55.822Z,23.95
2017-12-20T00:13:23.227Z,24.70
2017-12-20T00:15:49.941Z,27.90
2017-12-20T00:18:16.604Z,21.73
2017-12-20T00:20:43.366Z,27.05
2017-12-20T00:23:10.008Z,22.30
2017-12-20T00:25:37.390Z,28.70
2017-12-20T00:28:04.058Z,30.05
2017-12-20T00:30:30.748Z,23.62
2017-12-20T00:32:57.418Z,22.00
2017-12-20T00:35:24.085Z,25.77
2017-12-20T00:37:51.476Z,25.62
2017-12-20T00:40:18.137Z,24.75
2017-12-20T00:42:44.830Z,28.30
2017-12-20T00:45:11.545Z,39.47
2017-12-20T00:47:38.191Z,27.73
2017-12-20T00:50:04.832Z,28.20
2017-12-20T00:52:31.506Z,30.37
2017-12-20T00:54:58.399Z,30.75
2017-12-20T00:57:25.055Z,30.67
2017-12-20T00:59:51.738Z,26.60
2017-12-20T01:02:18.411Z,31.55
2017-12-20T01:04:45.082Z,27.75
2017-12-20T01:07:11.793Z,25.95
2017-12-20T01:09:38.502Z,26.90
2017-12-20T01:12:05.904Z,31.40
2017-12-20T01:14:32.562Z,27.50
2017-12-20T01:16:59.235Z,31.45
2017-12-20T01:19:26.740Z,32.47
2017-12-20T01:21:53.398Z,34.88
2017-12-20T01:24:20.058Z,29.60
2017-12-20T01:26:46.708Z,27.40
2017-12-20T01:29:13.354Z,31.90
2017-12-20T01:31:40.018Z,29.15
2017-12-20T01:34:07.398Z,28.50
2017-12-20T01:36:34.077Z,26.02
2017-12-20T01:39:00.760Z,34.72
2017-12-20T01:41:28.242Z,31.23
2017-12-20T01:43:54.907Z,27.48
2017-12-20T01:46:21.609Z,33.97
2017-12-20T01:48:49.004Z,38.90
2017-12-20T01:51:15.658Z,37.30
2017-12-20T01:53:42.335Z,34.22
2017-12-20T01:56:09.063Z,35.17
2017-12-20T01:58:35.777Z,38.08
2017-12-20T02:01:02.452Z,35.97
2017-12-20T02:03:29.100Z,36.80
2017-12-20T02:05:55.751Z,35.50
2017-12-20T02:08:22.462Z,29.77
2017-12-20T02:10:49.118Z,36.05
2017-12-20T02:13:15.852Z,32.53
2017-12-20T02:15:42.597Z,29.95
2017-12-20T02:18:09.264Z,32.58
2017-12-20T02:20:35.997Z,40.00
2017-12-20T02:23:02.694Z,31.40
2017-12-20T02:25:29.427Z,33.63
2017-12-20T02:27:56.136Z,32.85
2017-12-20T02:30:22.901Z,34.70
2017-12-20T02:32:50.374Z,31.90
2017-12-20T02:35:17.851Z,34.08
2017-12-20T02:37:44.582Z,30.27
2017-12-20T02:40:11.290Z,31.87
2017-12-20T02:42:38.017Z,28.55
2017-12-20T02:45:04.760Z,31.12
2017-12-20T02:47:31.498Z,33.92
2017-12-20T02:49:58.313Z,32.22
2017-12-20T02:52:25.079Z,31.45
2017-12-20T02:54:51.820Z,41.60
2017-12-20T02:57:18.561Z,36.97
2017-12-20T02:59:45.342Z,37.25
2017-12-20T03:02:12.059Z,34.85
2017-12-20T03:04:38.777Z,37.33
2017-12-20T03:07:05.524Z,36.95
2017-12-20T03:09:32.262Z,30.55
2017-12-20T03:11:59.003Z,35.00
2017-12-20T03:14:25.731Z,38.25
2017-12-20T03:16:53.131Z,40.58
2017-12-20T03:19:19.823Z,30.95
2017-12-20T03:21:47.314Z,32.38
2017-12-20T03:24:14.000Z,33.20
2017-12-20T03:26:40.718Z,32.92
2017-12-20T03:29:07.393Z,28.50
2017-12-20T03:31:34.065Z,32.20
2017-12-20T03:34:01.502Z,40.33
2017-12-20T03:36:28.163Z,28.38
2017-12-20T03:38:55.596Z,30.45
2017-12-20T03:41:22.259Z,25.62
2017-12-20T03:43:48.919Z,35.80
2017-12-20T03:46:16.365Z,31.85
2017-12-20T03:48:43.089Z,34.60
2017-12-20T03:51:09.822Z,28.98
2017-12-20T03:53:36.562Z,30.10
2017-12-20T03:56:03.282Z,30.80
2017-12-20T03:58:29.910Z,29.75
2017-12-20T04:00:56.623Z,35.08
2017-12-20T04:03:23.291Z,31.95
2017-12-20T04:05:50.683Z,31.80
2017-12-20T04:08:17.401Z,29.75
2017-12-20T04:10:44.083Z,30.60
2017-12-20T04:13:10.739Z,32.67
2017-12-20T04:15:37.730Z,27.52
2017-12-20T04:18:05.155Z,32.38
2017-12-20T04:20:31.795Z,35.67
2017-12-20T04:22:58.494Z,29.45
2017-12-20T04:25:25.134Z,31.85
2017-12-20T04:27:51.774Z,32.20
2017-12-20T04:30:18.474Z,36.15
2017-12-20T04:32:45.130Z,35.15
2017-12-20T04:35:12.539Z,30.15
2017-12-20T04:37:39.203Z,35.85
2017-12-20T04:40:06.730Z,34.45
2017-12-20T04:42:33.390Z,42.38
2017-12-20T04:45:00.042Z,37.85
2017-12-20T04:47:26.783Z,37.38
2017-12-20T04:49:53.411Z,47.50
2017-12-20T04:52:20.164Z,38.40
2017-12-20T04:54:46.859Z,40.83
2017-12-20T04:57:14.251Z,36.78
2017-12-20T04:59:40.870Z,43.03
2017-12-20T05:02:07.554Z,42.05
2017-12-20T05:04:34.244Z,48.05
2017-12-20T05:07:02.594Z,42.67
2017-12-20T05:09:29.275Z,46.28
2017-12-20T05:11:56.692Z,41.75
2017-12-20T05:14:23.340Z,42.65
2017-12-20T05:16:50.854Z,41.88
2017-12-20T05:19:17.477Z,45.92
2017-12-20T05:21:44.867Z,45.30
2017-12-20T05:24:11.524Z,39.35
2017-12-20T05:26:38.176Z,49.15
2017-12-20T05:29:04.823Z,46.72
2017-12-20T05:31:31.476Z,46.20
2017-12-20T05:33:58.120Z,46.45
2017-12-20T05:36:24.777Z,43.03
2017-12-20T05:38:52.191Z,46.35
2017-12-20T05:41:18.830Z,38.28
2017-12-20T05:43:45.470Z,44.28
2017-12-20T05:46:12.134Z,39.33
2017-12-20T05:48:39.705Z,52.85
2017-12-20T05:51:06.375Z,41.90
2017-12-20T05:53:33.768Z,43.92
2017-12-20T05:56:00.416Z,47.30
2017-12-20T05:58:27.052Z,44.58
2017-12-20T06:00:54.247Z,39.35
2017-12-20T06:03:20.906Z,37.05
2017-12-20T06:05:47.565Z,40.25
2017-12-20T06:08:14.986Z,52.40
2017-12-20T06:10:41.613Z,42.47
2017-12-20T06:13:08.253Z,49.45
2017-12-20T06:15:34.896Z,48.20
2017-12-20T06:18:01.554Z,51.40
2017-12-20T06:20:28.217Z,42.65
2017-12-20T06:22:54.870Z,42.20
2017-12-20T06:25:22.259Z,45.47
2017-12-20T06:27:48.942Z,40.40
2017-12-20T06:30:15.610Z,58.22
2017-12-20T06:32:43.042Z,45.72
2017-12-20T06:35:09.718Z,43.78
2017-12-20T06:37:37.123Z,48.58
2017-12-20T06:40:04.034Z,46.03
2017-12-20T06:42:31.435Z,53.75
2017-12-20T06:44:58.066Z,50.80
2017-12-20T06:47:24.729Z,44.45
2017-12-20T06:49:51.473Z,41.37
2017-12-20T06:52:18.140Z,39.72
2017-12-20T06:54:45.122Z,42.70
2017-12-20T06:57:11.776Z,46.28
2017-12-20T06:59:38.434Z,44.97
2017-12-20T07:02:05.094Z,39.25
2017-12-20T07:04:32.517Z,35.00
2017-12-20T07:06:59.664Z,31.85
2017-12-20T07:09:26.308Z,28.62
2017-12-20T07:11:53.869Z,27.83
2017-12-20T07:14:20.613Z,33.35
2017-12-20T07:16:47.262Z,27.98
2017-12-20T07:19:13.878Z,27.35
2017-12-20T07:21:41.282Z,30.75
2017-12-20T07:24:07.974Z,32.90
2017-12-20T07:26:34.643Z,30.85
2017-12-20T07:29:01.327Z,32.45
2017-12-20T07:31:28.008Z,35.28
2017-12-20T07:33:55.452Z,33.65
2017-12-20T07:36:22.578Z,37.60
2017-12-20T07:38:50.346Z,46.50
2017-12-20T07:41:17.511Z,32.25
2017-12-20T07:43:44.670Z,32.50
2017-12-20T07:46:11.436Z,30.58
2017-12-20T07:48:38.850Z,27.23
2017-12-20T07:51:05.515Z,25.92
2017-12-20T07:53:32.185Z,26.02
2017-12-20T07:55:59.609Z,24.85
2017-12-20T07:58:27.034Z,28.23
2017-12-20T08:00:53.700Z,26.58
2017-12-20T08:03:20.355Z,25.27
2017-12-20T08:05:47.031Z,19.05
2017-12-20T08:08:14.545Z,20.62
2017-12-20T08:10:41.195Z,25.20
2017-12-20T08:13:07.834Z,22.17
2017-12-20T08:15:34.614Z,22.98
2017-12-20T08:18:02.097Z,26.15
2017-12-20T08:20:29.486Z,20.67
2017-12-20T08:22:56.163Z,20.42
2017-12-20T08:25:23.589Z,23.70
2017-12-20T08:27:50.282Z,25.12
2017-12-20T08:30:17.552Z,21.25
2017-12-20T08:32:44.939Z,22.08
2017-12-20T08:35:12.455Z,24.10
2017-12-20T08:37:39.134Z,22.27
2017-12-20T08:40:05.773Z,26.77
2017-12-20T08:42:33.331Z,26.87
2017-12-20T08:45:00.750Z,23.75
2017-12-20T08:47:27.391Z,27.52
2017-12-20T08:49:54.957Z,22.70
2017-12-20T08:52:21.642Z,23.83
2017-12-20T08:54:50.035Z,23.95
2017-12-20T08:57:17.422Z,27.02
2017-12-20T08:59:44.107Z,26.40
2017-12-20T09:02:10.775Z,24.67
2017-12-20T09:04:37.436Z,28.23
2017-12-20T09:07:04.134Z,24.90
2017-12-20T09:09:30.774Z,25.37
2017-12-20T09:11:57.451Z,23.00
2017-12-20T09:14:24.224Z,26.33
2017-12-20T09:16:50.905Z,20.40
2017-12-20T09:19:17.590Z,27.92
2017-12-20T09:21:44.305Z,18.60
2017-12-20T09:24:11.601Z,27.13
2017-12-20T09:26:38.269Z,22.17
2017-12-20T09:29:06.783Z,26.40
2017-12-20T09:31:34.665Z,18.08
2017-12-20T09:34:02.080Z,17.52
2017-12-20T09:36:28.753Z,26.77
2017-12-20T09:38:56.166Z,17.45
2017-12-20T09:41:23.454Z,19.95
2017-12-20T09:43:50.284Z,19.95
2017-12-20T09:46:16.963Z,21.73
2017-12-20T09:48:44.351Z,18.90
2017-12-20T09:51:11.241Z,28.38
2017-12-20T09:53:38.931Z,21.02
2017-12-20T09:56:07.396Z,21.52
2017-12-20T09:58:36.039Z,23.30
2017-12-20T10:01:02.710Z,24.27
2017-12-20T10:03:30.130Z,25.85
2017-12-20T10:05:56.834Z,23.77
2017-12-20T10:08:23.528Z,23.67
2017-12-20T10:10:50.297Z,20.40
2017-12-20T10:13:17.035Z,22.55
2017-12-20T10:15:43.723Z,20.52
2017-12-20T10:18:11.941Z,18.55
2017-12-20T10:20:38.623Z,19.30
2017-12-20T10:23:05.375Z,19.27
2017-12-20T10:25:32.039Z,20.90
2017-12-20T10:27:59.014Z,22.37
2017-12-20T10:30:25.771Z,23.30
2017-12-20T10:32:52.483Z,23.93
2017-12-20T10:35:19.946Z,22.05
2017-12-20T10:37:47.338Z,21.60
2017-12-20T10:40:14.067Z,19.33
2017-12-20T10:42:40.822Z,19.80
2017-12-20T10:45:08.162Z,25.67
2017-12-20T10:47:34.812Z,25.23
2017-12-20T10:50:01.586Z,24.70
2017-12-20T10:52:28.491Z,27.40
2017-12-20T10:54:55.907Z,24.43
2017-12-20T10:57:22.624Z,27.20
2017-12-20T10:59:49.300Z,25.47
2017-12-20T11:02:16.027Z,29.33
2017-12-20T11:04:42.767Z,33.67
2017-12-20T11:07:09.454Z,28.93
2017-12-20T11:09:36.191Z,26.93
2017-12-20T11:12:02.862Z,25.93
2017-12-20T11:14:30.307Z,29.93
2017-12-20T11:16:57.749Z,30.60
2017-12-20T11:19:24.436Z,25.03
2017-12-20T11:21:51.164Z,28.03
2017-12-20T11:24:18.602Z,25.77
2017-12-20T11:26:45.306Z,25.37
2017-12-20T11:29:11.995Z,28.20
2017-12-20T11:31:38.719Z,22.13
2017-12-20T11:34:05.394Z,24.80
2017-12-20T11:36:32.796Z,25.80
2017-12-20T11:38:59.464Z,28.63
2017-12-20T11:41:26.116Z,19.07
2017-12-20T11:43:52.854Z,16.97
2017-12-20T11:46:19.512Z,17.17
2017-12-20T11:48:46.190Z,18.43
2017-12-20T11:51:12.913Z,15.73
2017-12-20T11:53:40.342Z,19.80
2017-12-20T11:56:07.109Z,17.40
2017-12-20T11:58:33.800Z,19.60
2017-12-20T12:01:00.550Z,22.33
2017-12-20T12:03:27.271Z,21.07
2017-12-20T12:05:54.022Z,20.77
2017-12-20T12:08:20.708Z,21.57
2017-12-20T12:10:47.400Z,18.33
2017-12-20T12:13:14.073Z,20.93
2017-12-20T12:15:40.732Z,21.87
2017-12-20T12:18:07.437Z,20.50
2017-12-20T12:20:34.158Z,19.10
2017-12-20T12:23:01.562Z,18.80
2017-12-20T12:25:28.262Z,17.93
2017-12-20T12:27:55.711Z,24.80
2017-12-20T12:30:23.214Z,24.00
2017-12-20T12:32:49.907Z,23.53
2017-12-20T12:35:16.761Z,20.97
2017-12-20T12:37:46.370Z,23.37
2017-12-20T12:40:18.476Z,21.47
2017-12-20T12:42:46.985Z,21.37
2017-12-20T12:45:13.749Z,28.03
2017-12-20T12:47:41.465Z,33.50
2017-12-20T12:50:08.110Z,21.07
2017-12-20T12:52:34.824Z,23.83
2017-12-20T12:55:01.529Z,25.97
2017-12-20T12:57:28.203Z,17.57
2017-12-20T12:59:54.914Z,19.63
2017-12-20T13:02:21.627Z,20.40
2017-12-20T13:04:48.345Z,19.77
2017-12-20T13:07:16.828Z,23.40
2017-12-20T13:09:45.706Z,21.93
2017-12-20T13:12:17.726Z,17.47
2017-12-20T13:14:46.572Z,22.17
2017-12-20T13:17:14.002Z,20.13
2017-12-20T13:19:40.682Z,18.60
2017-12-20T13:22:07.442Z,18.27
2017-12-20T13:24:34.878Z,20.97
2017-12-20T13:27:01.523Z,17.40
2017-12-20T13:29:28.215Z,20.65
2017-12-20T13:31:54.878Z,25.77
2017-12-20T13:34:21.537Z,14.70
2017-12-20T13:36:48.226Z,17.50
2017-12-20T13:39:14.900Z,13.50
2017-12-20T13:41:41.561Z,13.90
2017-12-20T13:44:08.297Z,16.77
2017-12-20T13:46:35.006Z,14.63
2017-12-20T13:49:01.727Z,11.73
2017-12-20T13:51:29.202Z,14.45
2017-12-20T13:53:55.891Z,13.73
2017-12-20T13:56:22.578Z,12.35
2017-12-20T13:58:49.302Z,21.95
2017-12-20T14:01:16.026Z,13.82
2017-12-20T14:03:42.673Z,12.57
2017-12-20T14:06:09.387Z,16.55
2017-12-20T14:08:36.122Z,13.52
2017-12-20T14:11:02.798Z,13.38
2017-12-20T14:13:29.504Z,13.38
2017-12-20T14:15:56.185Z,13.13
2017-12-20T14:18:22.845Z,12.25
2017-12-20T14:20:49.554Z,18.27
2017-12-20T14:23:16.246Z,13.75
2017-12-20T14:25:42.941Z,18.50
2017-12-20T14:28:09.630Z,15.65
2017-12-20T14:30:37.020Z,16.17
2017-12-20T14:33:03.682Z,14.20
2017-12-20T14:35:30.337Z,17.35
2017-12-20T14:37:56.986Z,15.95
2017-12-20T14:40:23.737Z,12.77
2017-12-20T14:42:50.424Z,17.52
2017-12-20T14:45:17.123Z,14.90
2017-12-20T14:47:43.771Z,13.18
2017-12-20T14:50:10.487Z,14.60
2017-12-20T14:52:37.137Z,14.38
2017-12-20T14:55:03.828Z,14.73
2017-12-20T14:57:31.350Z,14.43
2017-12-20T14:59:58.026Z,12.65
2017-12-20T15:02:25.479Z,13.70
2017-12-20T15:04:52.954Z,13.88
2017-12-20T15:07:20.382Z,14.60
2017-12-20T15:09:47.070Z,15.65
2017-12-20T15:12:13.804Z,16.73
2017-12-20T15:14:41.309Z,17.02
2017-12-20T15:17:07.970Z,15.77
2017-12-20T15:19:34.665Z,19.27
2017-12-20T15:22:01.355Z,15.50
2017-12-20T15:24:28.026Z,19.55
2017-12-20T15:26:55.504Z,17.80
2017-12-20T15:29:22.175Z,17.40
2017-12-20T15:31:48.885Z,18.35
2017-12-20T15:34:16.331Z,33.03
2017-12-20T15:36:43.007Z,20.15
2017-12-20T15:39:09.689Z,16.87
2017-12-20T15:41:36.430Z,17.37
2017-12-20T15:44:03.171Z,21.33
2017-12-20T15:46:29.857Z,22.60
2017-12-20T15:48:57.322Z,23.77
2017-12-20T15:51:24.734Z,21.23
2017-12-20T15:53:51.440Z,24.20
2017-12-20T15:56:18.386Z,20.08
2017-12-20T15:58:45.120Z,21.55
2017-12-20T16:01:12.677Z,28.38
2017-12-20T16:03:40.106Z,23.30
2017-12-20T16:06:06.798Z,27.20
2017-12-20T16:08:33.478Z,22.67
2017-12-20T16:11:00.190Z,26.40
2017-12-20T16:13:26.922Z,28.87
2017-12-20T16:15:53.585Z,21.45
2017-12-20T16:18:20.419Z,20.23
2017-12-20T16:20:47.080Z,21.77
2017-12-20T16:23:13.757Z,20.92
2017-12-20T16:25:40.505Z,22.00
2017-12-20T16:28:07.194Z,29.48
2017-12-20T16:30:33.905Z,30.25
2017-12-20T16:33:00.618Z,24.27
2017-12-20T16:35:27.395Z,30.73
2017-12-20T16:37:54.122Z,33.92
2017-12-20T16:40:20.876Z,33.58
2017-12-20T16:42:47.603Z,29.55
2017-12-20T16:45:14.411Z,35.45
2017-12-20T16:47:41.146Z,34.42
2017-12-20T16:50:07.843Z,34.00
2017-12-20T16:52:34.533Z,34.85
2017-12-20T16:55:01.399Z,31.20
2017-12-20T16:57:28.103Z,34.85
2017-12-20T16:59:55.508Z,30.60
2017-12-20T17:02:22.181Z,29.12
2017-12-20T17:04:48.887Z,26.83
2017-12-20T17:07:15.573Z,29.52
2017-12-20T17:09:42.265Z,27.90
2017-12-20T17:12:08.954Z,36.33
2017-12-20T17:14:35.634Z,35.63
2017-12-20T17:17:03.115Z,32.03
2017-12-20T17:19:29.985Z,35.45
2017-12-20T17:21:56.643Z,31.90
2017-12-20T17:24:23.363Z,31.10
2017-12-20T17:26:50.037Z,29.73
2017-12-20T17:29:16.682Z,30.88
2017-12-20T17:31:43.514Z,30.75
2017-12-20T17:34:10.162Z,32.63
2017-12-20T17:36:36.878Z,30.80
2017-12-20T17:39:03.688Z,33.47
2017-12-20T17:41:31.113Z,30.58
2017-12-20T17:43:57.778Z,32.25
2017-12-20T17:46:25.210Z,31.90
2017-12-20T17:48:51.887Z,28.65
2017-12-20T17:51:19.316Z,30.75
2017-12-20T17:53:46.030Z,27.67
2017-12-20T17:56:12.704Z,33.00
2017-12-20T17:58:39.381Z,32.03
2017-12-20T18:01:06.883Z,29.73
2017-12-20T18:03:33.684Z,26.25
2017-12-20T18:06:01.095Z,28.02
2017-12-20T18:08:27.772Z,26.27
2017-12-20T18:10:54.492Z,27.80
2017-12-20T18:13:21.154Z,24.30
2017-12-20T18:15:47.866Z,31.05
2017-12-20T18:18:15.528Z,26.73
2017-12-20T18:20:42.190Z,35.75
2017-12-20T18:23:08.850Z,23.95
2017-12-20T18:25:35.535Z,34.42
2017-12-20T18:28:02.209Z,30.20
2017-12-20T18:30:28.894Z,30.15
2017-12-20T18:32:56.306Z,29.02
2017-12-20T18:35:22.953Z,30.92
2017-12-20T18:37:49.623Z,24.23
2017-12-20T18:40:17.064Z,29.23
2017-12-20T18:42:43.758Z,27.27
2017-12-20T18:45:11.177Z,30.15
2017-12-20T18:47:37.865Z,27.23
2017-12-20T18:50:04.570Z,30.05
2017-12-20T18:52:31.257Z,28.62
2017-12-20T18:54:57.966Z,32.17
2017-12-20T18:57:24.709Z,39.22
2017-12-20T18:59:51.433Z,30.17
2017-12-20T19:02:18.186Z,37.60
2017-12-20T19:04:44.867Z,30.73
2017-12-20T19:07:12.312Z,30.15
2017-12-20T19:09:39.992Z,32.03
2017-12-20T19:12:06.723Z,32.45
2017-12-20T19:14:34.184Z,30.50
2017-12-20T19:17:01.598Z,32.20
2017-12-20T19:19:28.279Z,28.05
2017-12-20T19:21:55.703Z,26.25
2017-12-20T19:24:22.375Z,28.77
2017-12-20T19:26:49.053Z,35.53
2017-12-20T19:29:15.709Z,28.73
2017-12-20T19:31:42.388Z,32.20
2017-12-20T19:34:09.082Z,29.70
2017-12-20T19:36:36.682Z,31.50
2017-12-20T19:39:04.154Z,31.92
2017-12-20T19:41:30.842Z,31.55
2017-12-20T19:43:58.330Z,34.28
2017-12-20T19:46:25.040Z,36.40
2017-12-20T19:48:52.504Z,46.53
2017-12-20T19:51:19.962Z,37.70
2017-12-20T19:53:47.377Z,32.30
2017-12-20T19:56:14.281Z,31.37
2017-12-20T19:58:40.982Z,38.63
2017-12-20T20:01:11.466Z,36.90
2017-12-20T20:03:38.105Z,39.45
2017-12-20T20:06:04.781Z,37.17
2017-12-20T20:08:31.457Z,29.70
2017-12-20T20:10:58.121Z,37.45
2017-12-20T20:13:25.511Z,32.95
2017-12-20T20:15:52.161Z,33.50
2017-12-20T20:18:18.797Z,37.53
2017-12-20T20:20:45.463Z,38.97
2017-12-20T20:23:12.718Z,38.90
2017-12-20T20:25:39.378Z,35.75
2017-12-20T20:28:06.054Z,36.25
2017-12-20T20:30:33.823Z,38.90
2017-12-20T20:33:00.473Z,46.45
2017-12-20T20:35:27.133Z,46.80
2017-12-20T20:37:53.913Z,35.33
2017-12-20T20:40:20.670Z,38.90
2017-12-20T20:42:47.396Z,38.75
2017-12-20T20:45:14.042Z,40.35
2017-12-20T20:47:40.709Z,40.25
2017-12-20T20:50:08.108Z,39.22
2017-12-20T20:52:34.743Z,43.78
2017-12-20T20:55:02.349Z,46.70
2017-12-20T20:57:29.058Z,39.78
2017-12-20T20:59:55.710Z,48.03
2017-12-20T21:02:23.116Z,38.13
2017-12-20T21:04:50.528Z,48.45
2017-12-20T21:07:17.249Z,48.17
2017-12-20T21:09:44.239Z,37.30
2017-12-20T21:12:11.885Z,43.08
2017-12-20T21:14:38.567Z,43.40
2017-12-20T21:17:05.571Z,40.80
2017-12-20T21:19:32.269Z,39.17
2017-12-20T21:21:58.942Z,41.53
2017-12-20T21:24:25.608Z,47.60
2017-12-20T21:26:53.213Z,41.92
2017-12-20T21:29:20.446Z,43.42
2017-12-20T21:31:47.084Z,46.17
2017-12-20T21:34:13.783Z,48.60
2017-12-20T21:36:40.441Z,45.50
2017-12-20T21:39:07.094Z,44.95
2017-12-20T21:41:33.772Z,45.85
2017-12-20T21:44:00.424Z,41.75
2017-12-20T21:46:27.070Z,43.50
2017-12-20T21:48:53.726Z,38.67
2017-12-20T21:51:21.196Z,34.97
2017-12-20T21:53:47.893Z,39.35
2017-12-20T21:56:15.366Z,38.70
2017-12-20T21:58:42.808Z,43.25
2017-12-20T22:01:09.482Z,39.00
2017-12-20T22:03:36.786Z,47.35
2017-12-20T22:06:03.455Z,44.22
2017-12-20T22:08:32.626Z,44.33
2017-12-20T22:10:59.339Z,49.17
2017-12-20T22:13:26.786Z,56.00
2017-12-20T22:15:53.495Z,52.53
2017-12-20T22:18:20.178Z,59.75
2017-12-20T22:20:47.631Z,50.15
2017-12-20T22:23:15.046Z,44.88
2017-12-20T22:25:41.696Z,45.40
2017-12-20T22:28:08.341Z,47.05
2017-12-20T22:30:36.706Z,40.92
2017-12-20T22:33:03.378Z,49.92
2017-12-20T22:35:30.032Z,49.88
2017-12-20T22:37:56.714Z,46.83
2017-12-20T22:40:23.367Z,54.72
2017-12-20T22:42:50.038Z,50.28
2017-12-20T22:45:16.822Z,47.62
2017-12-20T22:47:44.278Z,45.67
2017-12-20T22:50:10.918Z,44.90
2017-12-20T22:52:37.838Z,42.38
2017-12-20T22:55:04.492Z,47.35
2017-12-20T22:57:31.134Z,38.72
2017-12-20T22:59:57.805Z,39.67
2017-12-20T23:02:25.219Z,42.42
2017-12-20T23:04:51.854Z,45.05
2017-12-20T23:07:18.638Z,38.40
2017-12-20T23:09:45.348Z,42.30
2017-12-20T23:12:11.969Z,37.53
2017-12-20T23:14:38.600Z,41.13
2017-12-20T23:17:05.291Z,42.33
2017-12-20T23:19:31.966Z,48.08
2017-12-20T23:21:59.389Z,46.10
2017-12-20T23:24:26.066Z,49.92
2017-12-20T23:26:53.523Z,44.80
2017-12-20T23:29:20.939Z,51.83
2017-12-20T23:31:47.619Z,47.20
2017-12-20T23:34:14.302Z,46.20
2017-12-20T23:36:41.006Z,60.35
2017-12-20T23:39:07.718Z,49.20
2017-12-20T23:41:34.379Z,42.75
2017-12-20T23:44:01.159Z,46.65
2017-12-20T23:46:28.579Z,46.58
2017-12-20T23:48:55.283Z,46.15
2017-12-20T23:51:21.945Z,41.05
2017-12-20T23:53:48.613Z,50.00
2017-12-20T23:56:15.359Z,45.90
2017-12-20T23:58:42.012Z,44.95
